sensor_id;sensor_type;location;lat;lon;timestamp;temperature;humidity
69823;SHT31;57119;52.516;13.508;2023-04-15T00:01:49;8.42;99.99
69823;SHT31;57119;52.516;13.508;2023-04-15T00:04:14;8.38;99.99
69823;SHT31;57119;52.516;13.508;2023-04-15T00:06:39;8.38;99.99
69823;SHT31;57119;52.516;13.508;2023-04-15T00:09:05;8.38;99.99
69823;SHT31;57119;52.516;13.508;2023-04-15T00:11:30;8.31;99.99
69823;SHT31;57119;52.516;13.508;2023-04-15T00:13:55;8.29;99.99
69823;SHT31;57119;52.516;13.508;2023-04-15T00:16:21;8.33;99.99
69823;SHT31;57119;52.516;13.508;2023-04-15T00:18:46;8.30;99.99
69823;SHT31;57119;52.516;13.508;2023-04-15T00:21:12;8.27;99.99
69823;SHT31;57119;52.516;13.508;2023-04-15T00:26:04;8.27;99.99
69823;SHT31;57119;52.516;13.508;2023-04-15T00:28:30;8.34;99.99
69823;SHT31;57119;52.516;13.508;2023-04-15T00:30:56;8.38;99.99
69823;SHT31;57119;52.516;13.508;2023-04-15T00:33:21;8.26;99.99
69823;SHT31;57119;52.516;13.508;2023-04-15T00:35:47;8.30;99.99
69823;SHT31;57119;52.516;13.508;2023-04-15T00:38:12;8.30;99.99
69823;SHT31;57119;52.516;13.508;2023-04-15T00:40:38;8.31;99.99
69823;SHT31;57119;52.516;13.508;2023-04-15T00:43:03;8.30;99.99
69823;SHT31;57119;52.516;13.508;2023-04-15T00:45:29;8.27;99.99
69823;SHT31;57119;52.516;13.508;2023-04-15T00:47:55;8.34;99.99
69823;SHT31;57119;52.516;13.508;2023-04-15T00:50:21;8.31;99.99
69823;SHT31;57119;52.516;13.508;2023-04-15T00:52:46;8.33;99.99
69823;SHT31;57119;52.516;13.508;2023-04-15T00:55:12;8.34;99.99
69823;SHT31;57119;52.516;13.508;2023-04-15T00:57:38;8.34;99.99
69823;SHT31;57119;52.516;13.508;2023-04-15T01:00:05;8.36;99.99
69823;SHT31;57119;52.516;13.508;2023-04-15T01:02:33;8.34;99.99
69823;SHT31;57119;52.516;13.508;2023-04-15T01:04:59;8.33;99.99
69823;SHT31;57119;52.516;13.508;2023-04-15T01:07:24;8.30;99.99
69823;SHT31;57119;52.516;13.508;2023-04-15T01:09:51;8.29;99.99
69823;SHT31;57119;52.516;13.508;2023-04-15T01:12:18;8.23;99.99
69823;SHT31;57119;52.516;13.508;2023-04-15T01:14:44;8.21;99.99
69823;SHT31;57119;52.516;13.508;2023-04-15T01:17:10;8.27;99.99
69823;SHT31;57119;52.516;13.508;2023-04-15T01:19:36;8.20;99.99
69823;SHT31;57119;52.516;13.508;2023-04-15T01:22:02;8.21;99.99
69823;SHT31;57119;52.516;13.508;2023-04-15T01:24:29;8.23;99.99
69823;SHT31;57119;52.516;13.508;2023-04-15T01:26:56;8.19;99.99
69823;SHT31;57119;52.516;13.508;2023-04-15T01:29:21;8.23;99.99
69823;SHT31;57119;52.516;13.508;2023-04-15T01:31:51;8.20;99.99
69823;SHT31;57119;52.516;13.508;2023-04-15T01:34:17;8.19;99.99
69823;SHT31;57119;52.516;13.508;2023-04-15T01:36:42;8.20;99.99
69823;SHT31;57119;52.516;13.508;2023-04-15T01:39:08;8.19;99.99
69823;SHT31;57119;52.516;13.508;2023-04-15T01:41:33;8.23;99.99
69823;SHT31;57119;52.516;13.508;2023-04-15T01:43:59;8.16;99.99
69823;SHT31;57119;52.516;13.508;2023-04-15T01:46:24;8.19;99.99
69823;SHT31;57119;52.516;13.508;2023-04-15T01:48:50;8.21;99.99
69823;SHT31;57119;52.516;13.508;2023-04-15T01:51:16;8.21;99.99
69823;SHT31;57119;52.516;13.508;2023-04-15T01:53:41;8.17;99.99
69823;SHT31;57119;52.516;13.508;2023-04-15T01:56:07;8.14;99.99
69823;SHT31;57119;52.516;13.508;2023-04-15T01:58:32;8.14;99.99
69823;SHT31;57119;52.516;13.508;2023-04-15T02:00:58;8.09;99.99
69823;SHT31;57119;52.516;13.508;2023-04-15T02:03:24;8.16;99.99
69823;SHT31;57119;52.516;13.508;2023-04-15T02:05:49;8.17;99.99
69823;SHT31;57119;52.516;13.508;2023-04-15T02:08:15;8.14;99.99
69823;SHT31;57119;52.516;13.508;2023-04-15T02:10:41;8.24;99.99
69823;SHT31;57119;52.516;13.508;2023-04-15T02:13:06;8.19;99.99
69823;SHT31;57119;52.516;13.508;2023-04-15T02:15:32;8.20;99.99
69823;SHT31;57119;52.516;13.508;2023-04-15T02:17:57;8.19;99.99
69823;SHT31;57119;52.516;13.508;2023-04-15T02:20:25;8.16;99.99
69823;SHT31;57119;52.516;13.508;2023-04-15T02:22:50;8.13;99.99
69823;SHT31;57119;52.516;13.508;2023-04-15T02:25:16;8.20;99.99
69823;SHT31;57119;52.516;13.508;2023-04-15T02:27:42;8.14;99.99
69823;SHT31;57119;52.516;13.508;2023-04-15T02:30:08;8.14;99.99
69823;SHT31;57119;52.516;13.508;2023-04-15T02:32:34;8.14;99.99
69823;SHT31;57119;52.516;13.508;2023-04-15T02:35:07;8.31;99.99
69823;SHT31;57119;52.516;13.508;2023-04-15T02:37:35;8.27;99.99
69823;SHT31;57119;52.516;13.508;2023-04-15T02:40:06;8.30;99.99
69823;SHT31;57119;52.516;13.508;2023-04-15T02:42:32;8.33;99.99
69823;SHT31;57119;52.516;13.508;2023-04-15T02:44:58;8.34;99.99
69823;SHT31;57119;52.516;13.508;2023-04-15T02:47:23;8.34;99.99
69823;SHT31;57119;52.516;13.508;2023-04-15T02:49:48;8.31;99.99
69823;SHT31;57119;52.516;13.508;2023-04-15T02:52:14;8.33;99.99
69823;SHT31;57119;52.516;13.508;2023-04-15T02:54:39;8.34;99.99
69823;SHT31;57119;52.516;13.508;2023-04-15T02:57:05;8.33;99.99
69823;SHT31;57119;52.516;13.508;2023-04-15T02:59:31;8.33;99.99
69823;SHT31;57119;52.516;13.508;2023-04-15T03:01:57;8.29;99.99
69823;SHT31;57119;52.516;13.508;2023-04-15T03:04:25;8.41;99.99
69823;SHT31;57119;52.516;13.508;2023-04-15T03:06:51;8.38;99.99
69823;SHT31;57119;52.516;13.508;2023-04-15T03:09:16;8.47;99.99
69823;SHT31;57119;52.516;13.508;2023-04-15T03:11:42;8.47;99.99
69823;SHT31;57119;52.516;13.508;2023-04-15T03:14:07;8.48;99.99
69823;SHT31;57119;52.516;13.508;2023-04-15T03:16:32;8.47;99.99
69823;SHT31;57119;52.516;13.508;2023-04-15T03:18:58;8.48;99.99
69823;SHT31;57119;52.516;13.508;2023-04-15T03:21:23;8.60;99.99
69823;SHT31;57119;52.516;13.508;2023-04-15T03:23:48;8.54;99.99
69823;SHT31;57119;52.516;13.508;2023-04-15T03:26:25;8.48;99.99
69823;SHT31;57119;52.516;13.508;2023-04-15T03:28:51;8.51;99.99
69823;SHT31;57119;52.516;13.508;2023-04-15T03:31:16;8.57;99.99
69823;SHT31;57119;52.516;13.508;2023-04-15T03:33:42;8.57;99.99
69823;SHT31;57119;52.516;13.508;2023-04-15T03:36:07;8.54;99.99
69823;SHT31;57119;52.516;13.508;2023-04-15T03:38:33;8.52;99.99
69823;SHT31;57119;52.516;13.508;2023-04-15T03:40:58;8.57;99.99
69823;SHT31;57119;52.516;13.508;2023-04-15T03:43:23;8.51;99.99
69823;SHT31;57119;52.516;13.508;2023-04-15T03:45:49;8.60;99.99
69823;SHT31;57119;52.516;13.508;2023-04-15T03:48:14;8.55;99.99
69823;SHT31;57119;52.516;13.508;2023-04-15T03:50:40;8.65;99.99
69823;SHT31;57119;52.516;13.508;2023-04-15T03:53:05;8.62;99.99
69823;SHT31;57119;52.516;13.508;2023-04-15T03:55:31;8.62;99.99
69823;SHT31;57119;52.516;13.508;2023-04-15T03:57:56;8.68;99.99
69823;SHT31;57119;52.516;13.508;2023-04-15T04:00:22;8.69;99.99
69823;SHT31;57119;52.516;13.508;2023-04-15T04:02:47;8.65;99.99
69823;SHT31;57119;52.516;13.508;2023-04-15T04:05:12;8.72;99.99
69823;SHT31;57119;52.516;13.508;2023-04-15T04:07:38;8.67;99.99
69823;SHT31;57119;52.516;13.508;2023-04-15T04:10:03;8.71;99.99
69823;SHT31;57119;52.516;13.508;2023-04-15T04:12:29;8.73;99.99
69823;SHT31;57119;52.516;13.508;2023-04-15T04:14:54;8.76;99.99
69823;SHT31;57119;52.516;13.508;2023-04-15T04:17:20;8.76;99.99
69823;SHT31;57119;52.516;13.508;2023-04-15T04:19:45;8.71;99.99
69823;SHT31;57119;52.516;13.508;2023-04-15T04:22:11;8.72;99.99
69823;SHT31;57119;52.516;13.508;2023-04-15T04:24:36;8.76;99.99
69823;SHT31;57119;52.516;13.508;2023-04-15T04:27:01;8.75;99.99
69823;SHT31;57119;52.516;13.508;2023-04-15T04:29:27;8.75;99.99
69823;SHT31;57119;52.516;13.508;2023-04-15T04:31:52;8.79;99.99
69823;SHT31;57119;52.516;13.508;2023-04-15T04:34:18;8.79;99.99
69823;SHT31;57119;52.516;13.508;2023-04-15T04:36:43;8.93;99.99
69823;SHT31;57119;52.516;13.508;2023-04-15T04:39:08;8.90;99.99
69823;SHT31;57119;52.516;13.508;2023-04-15T04:41:34;8.92;99.99
69823;SHT31;57119;52.516;13.508;2023-04-15T04:43:59;9.03;99.99
69823;SHT31;57119;52.516;13.508;2023-04-15T04:46:24;9.00;99.99
69823;SHT31;57119;52.516;13.508;2023-04-15T04:48:50;9.06;99.99
69823;SHT31;57119;52.516;13.508;2023-04-15T04:51:17;8.98;99.99
69823;SHT31;57119;52.516;13.508;2023-04-15T04:53:42;8.99;99.99
69823;SHT31;57119;52.516;13.508;2023-04-15T04:56:08;9.06;99.99
69823;SHT31;57119;52.516;13.508;2023-04-15T04:58:34;9.06;99.99
69823;SHT31;57119;52.516;13.508;2023-04-15T05:00:59;9.03;99.99
69823;SHT31;57119;52.516;13.508;2023-04-15T05:03:25;9.13;99.99
69823;SHT31;57119;52.516;13.508;2023-04-15T05:05:50;9.05;99.99
69823;SHT31;57119;52.516;13.508;2023-04-15T05:08:16;9.09;99.99
69823;SHT31;57119;52.516;13.508;2023-04-15T05:10:41;9.12;99.99
69823;SHT31;57119;52.516;13.508;2023-04-15T05:13:07;9.09;99.99
69823;SHT31;57119;52.516;13.508;2023-04-15T05:15:32;9.19;99.99
69823;SHT31;57119;52.516;13.508;2023-04-15T05:17:59;9.22;99.99
69823;SHT31;57119;52.516;13.508;2023-04-15T05:20:25;9.24;99.99
69823;SHT31;57119;52.516;13.508;2023-04-15T05:22:50;9.23;99.99
69823;SHT31;57119;52.516;13.508;2023-04-15T05:25:16;9.33;99.99
69823;SHT31;57119;52.516;13.508;2023-04-15T05:27:42;9.36;99.99
69823;SHT31;57119;52.516;13.508;2023-04-15T05:30:07;9.31;99.99
69823;SHT31;57119;52.516;13.508;2023-04-15T05:32:33;9.40;99.99
69823;SHT31;57119;52.516;13.508;2023-04-15T05:34:58;9.46;99.99
69823;SHT31;57119;52.516;13.508;2023-04-15T05:37:24;9.44;99.99
69823;SHT31;57119;52.516;13.508;2023-04-15T05:39:49;9.55;99.99
69823;SHT31;57119;52.516;13.508;2023-04-15T05:42:15;9.59;99.99
69823;SHT31;57119;52.516;13.508;2023-04-15T05:44:41;9.65;99.99
69823;SHT31;57119;52.516;13.508;2023-04-15T05:47:07;9.67;99.99
69823;SHT31;57119;52.516;13.508;2023-04-15T05:49:33;9.67;99.99
69823;SHT31;57119;52.516;13.508;2023-04-15T05:52:02;9.70;99.99
69823;SHT31;57119;52.516;13.508;2023-04-15T05:54:27;9.77;99.99
69823;SHT31;57119;52.516;13.508;2023-04-15T05:56:53;9.79;99.99
69823;SHT31;57119;52.516;13.508;2023-04-15T05:59:19;9.81;99.99
69823;SHT31;57119;52.516;13.508;2023-04-15T06:01:45;9.95;99.99
69823;SHT31;57119;52.516;13.508;2023-04-15T06:04:10;9.98;99.99
69823;SHT31;57119;52.516;13.508;2023-04-15T06:06:36;10.09;99.99
69823;SHT31;57119;52.516;13.508;2023-04-15T06:09:03;10.10;99.99
69823;SHT31;57119;52.516;13.508;2023-04-15T06:11:29;10.09;99.99
69823;SHT31;57119;52.516;13.508;2023-04-15T06:13:55;10.20;99.99
69823;SHT31;57119;52.516;13.508;2023-04-15T06:16:21;10.22;99.99
69823;SHT31;57119;52.516;13.508;2023-04-15T06:18:47;10.16;99.99
69823;SHT31;57119;52.516;13.508;2023-04-15T06:21:12;10.30;99.99
69823;SHT31;57119;52.516;13.508;2023-04-15T06:23:38;10.25;99.99
69823;SHT31;57119;52.516;13.508;2023-04-15T06:26:05;10.29;99.99
69823;SHT31;57119;52.516;13.508;2023-04-15T06:28:33;10.40;99.99
69823;SHT31;57119;52.516;13.508;2023-04-15T06:30:58;10.44;99.99
69823;SHT31;57119;52.516;13.508;2023-04-15T06:33:25;10.56;99.99
69823;SHT31;57119;52.516;13.508;2023-04-15T06:35:56;10.60;99.99
69823;SHT31;57119;52.516;13.508;2023-04-15T06:38:25;10.61;99.99
69823;SHT31;57119;52.516;13.508;2023-04-15T06:40:50;10.64;99.54
69823;SHT31;57119;52.516;13.508;2023-04-15T06:43:15;10.80;99.96
69823;SHT31;57119;52.516;13.508;2023-04-15T06:45:41;10.87;99.38
69823;SHT31;57119;52.516;13.508;2023-04-15T06:48:06;10.91;99.15
69823;SHT31;57119;52.516;13.508;2023-04-15T06:50:32;11.18;99.09
69823;SHT31;57119;52.516;13.508;2023-04-15T06:52:57;11.07;97.56
69823;SHT31;57119;52.516;13.508;2023-04-15T06:55:23;11.11;97.68
69823;SHT31;57119;52.516;13.508;2023-04-15T06:57:48;11.26;96.78
69823;SHT31;57119;52.516;13.508;2023-04-15T07:00:14;11.35;97.03
69823;SHT31;57119;52.516;13.508;2023-04-15T07:02:39;11.32;96.14
69823;SHT31;57119;52.516;13.508;2023-04-15T07:05:05;11.29;96.07
69823;SHT31;57119;52.516;13.508;2023-04-15T07:07:31;11.05;96.53
69823;SHT31;57119;52.516;13.508;2023-04-15T07:09:57;11.32;97.27
69823;SHT31;57119;52.516;13.508;2023-04-15T07:12:22;11.22;97.10
69823;SHT31;57119;52.516;13.508;2023-04-15T07:14:47;11.31;97.45
69823;SHT31;57119;52.516;13.508;2023-04-15T07:17:13;11.35;97.50
69823;SHT31;57119;52.516;13.508;2023-04-15T07:19:38;11.32;96.83
69823;SHT31;57119;52.516;13.508;2023-04-15T07:22:04;11.40;96.54
69823;SHT31;57119;52.516;13.508;2023-04-15T07:24:30;11.53;96.97
69823;SHT31;57119;52.516;13.508;2023-04-15T07:26:55;11.35;96.94
69823;SHT31;57119;52.516;13.508;2023-04-15T07:29:24;11.29;96.81
69823;SHT31;57119;52.516;13.508;2023-04-15T07:31:49;11.18;97.21
69823;SHT31;57119;52.516;13.508;2023-04-15T07:34:15;11.16;97.73
69823;SHT31;57119;52.516;13.508;2023-04-15T07:36:41;11.01;97.80
69823;SHT31;57119;52.516;13.508;2023-04-15T07:39:06;11.01;97.96
69823;SHT31;57119;52.516;13.508;2023-04-15T07:41:32;11.10;98.06
69823;SHT31;57119;52.516;13.508;2023-04-15T07:43:57;10.78;98.11
69823;SHT31;57119;52.516;13.508;2023-04-15T07:46:23;10.63;98.76
69823;SHT31;57119;52.516;13.508;2023-04-15T07:48:51;10.60;98.74
69823;SHT31;57119;52.516;13.508;2023-04-15T07:51:17;10.57;99.22
69823;SHT31;57119;52.516;13.508;2023-04-15T07:53:43;10.65;99.31
69823;SHT31;57119;52.516;13.508;2023-04-15T07:56:09;10.56;98.88
69823;SHT31;57119;52.516;13.508;2023-04-15T07:58:35;10.60;98.85
69823;SHT31;57119;52.516;13.508;2023-04-15T08:01:04;10.59;99.29
69823;SHT31;57119;52.516;13.508;2023-04-15T08:03:29;10.56;98.39
69823;SHT31;57119;52.516;13.508;2023-04-15T08:05:55;10.54;98.50
69823;SHT31;57119;52.516;13.508;2023-04-15T08:08:20;10.65;98.48
69823;SHT31;57119;52.516;13.508;2023-04-15T08:10:46;10.61;98.96
69823;SHT31;57119;52.516;13.508;2023-04-15T08:13:11;10.39;99.48
69823;SHT31;57119;52.516;13.508;2023-04-15T08:15:37;10.33;99.68
69823;SHT31;57119;52.516;13.508;2023-04-15T08:18:02;10.50;99.85
69823;SHT31;57119;52.516;13.508;2023-04-15T08:20:28;10.56;99.99
69823;SHT31;57119;52.516;13.508;2023-04-15T08:22:54;10.49;99.28
69823;SHT31;57119;52.516;13.508;2023-04-15T08:25:19;10.52;99.47
69823;SHT31;57119;52.516;13.508;2023-04-15T08:27:45;10.60;99.54
69823;SHT31;57119;52.516;13.508;2023-04-15T08:30:11;10.65;99.25
69823;SHT31;57119;52.516;13.508;2023-04-15T08:32:37;10.73;99.01
69823;SHT31;57119;52.516;13.508;2023-04-15T08:35:03;11.00;99.12
69823;SHT31;57119;52.516;13.508;2023-04-15T08:37:28;11.02;99.11
69823;SHT31;57119;52.516;13.508;2023-04-15T08:39:53;11.10;98.14
69823;SHT31;57119;52.516;13.508;2023-04-15T08:42:25;11.02;98.71
69823;SHT31;57119;52.516;13.508;2023-04-15T08:44:52;10.84;99.78
69823;SHT31;57119;52.516;13.508;2023-04-15T08:47:20;10.80;99.78
69823;SHT31;57119;52.516;13.508;2023-04-15T08:49:50;10.68;99.45
69823;SHT31;57119;52.516;13.508;2023-04-15T08:52:18;10.80;99.09
69823;SHT31;57119;52.516;13.508;2023-04-15T08:54:43;10.78;99.78
69823;SHT31;57119;52.516;13.508;2023-04-15T08:57:09;10.83;99.20
69823;SHT31;57119;52.516;13.508;2023-04-15T08:59:35;10.88;99.48
69823;SHT31;57119;52.516;13.508;2023-04-15T09:02:01;10.88;99.66
69823;SHT31;57119;52.516;13.508;2023-04-15T09:04:27;11.02;99.27
69823;SHT31;57119;52.516;13.508;2023-04-15T09:06:52;10.98;98.82
69823;SHT31;57119;52.516;13.508;2023-04-15T09:09:18;11.15;98.95
69823;SHT31;57119;52.516;13.508;2023-04-15T09:11:43;11.29;98.22
69823;SHT31;57119;52.516;13.508;2023-04-15T09:14:08;11.18;99.76
69823;SHT31;57119;52.516;13.508;2023-04-15T09:16:56;11.32;98.53
69823;SHT31;57119;52.516;13.508;2023-04-15T09:19:23;11.21;98.22
69823;SHT31;57119;52.516;13.508;2023-04-15T09:21:54;11.31;98.27
69823;SHT31;57119;52.516;13.508;2023-04-15T09:24:21;11.23;98.08
69823;SHT31;57119;52.516;13.508;2023-04-15T09:26:47;11.28;98.57
69823;SHT31;57119;52.516;13.508;2023-04-15T09:29:16;11.23;98.57
69823;SHT31;57119;52.516;13.508;2023-04-15T09:31:42;11.31;99.38
69823;SHT31;57119;52.516;13.508;2023-04-15T09:34:08;11.23;97.92
69823;SHT31;57119;52.516;13.508;2023-04-15T09:39:11;11.23;98.68
69823;SHT31;57119;52.516;13.508;2023-04-15T09:41:37;11.10;99.10
69823;SHT31;57119;52.516;13.508;2023-04-15T09:44:03;10.97;99.11
69823;SHT31;57119;52.516;13.508;2023-04-15T09:46:42;10.88;99.45
69823;SHT31;57119;52.516;13.508;2023-04-15T09:49:08;10.94;99.86
69823;SHT31;57119;52.516;13.508;2023-04-15T09:51:34;10.97;99.60
69823;SHT31;57119;52.516;13.508;2023-04-15T09:54:00;10.95;99.25
69823;SHT31;57119;52.516;13.508;2023-04-15T09:56:36;10.84;99.89
69823;SHT31;57119;52.516;13.508;2023-04-15T09:59:04;10.81;99.99
69823;SHT31;57119;52.516;13.508;2023-04-15T10:01:30;10.83;99.60
69823;SHT31;57119;52.516;13.508;2023-04-15T10:03:56;10.80;99.99
69823;SHT31;57119;52.516;13.508;2023-04-15T10:06:26;10.73;99.99
69823;SHT31;57119;52.516;13.508;2023-04-15T10:08:53;10.83;99.99
69823;SHT31;57119;52.516;13.508;2023-04-15T10:11:19;10.95;99.99
69823;SHT31;57119;52.516;13.508;2023-04-15T10:13:48;10.95;99.99
69823;SHT31;57119;52.516;13.508;2023-04-15T10:16:15;10.95;99.99
69823;SHT31;57119;52.516;13.508;2023-04-15T10:18:46;11.02;99.99
69823;SHT31;57119;52.516;13.508;2023-04-15T10:21:12;11.11;99.99
69823;SHT31;57119;52.516;13.508;2023-04-15T10:23:40;11.11;99.99
69823;SHT31;57119;52.516;13.508;2023-04-15T10:26:07;11.11;99.99
69823;SHT31;57119;52.516;13.508;2023-04-15T10:28:33;11.14;99.99
69823;SHT31;57119;52.516;13.508;2023-04-15T10:30:59;11.36;99.88
69823;SHT31;57119;52.516;13.508;2023-04-15T10:33:26;11.33;99.99
69823;SHT31;57119;52.516;13.508;2023-04-15T10:35:53;11.36;99.89
69823;SHT31;57119;52.516;13.508;2023-04-15T10:43:44;11.66;99.99
69823;SHT31;57119;52.516;13.508;2023-04-15T10:46:09;11.65;99.81
69823;SHT31;57119;52.516;13.508;2023-04-15T10:48:35;11.86;99.83
69823;SHT31;57119;52.516;13.508;2023-04-15T10:51:00;11.67;99.27
69823;SHT31;57119;52.516;13.508;2023-04-15T10:53:29;11.55;99.51
69823;SHT31;57119;52.516;13.508;2023-04-15T10:55:56;11.60;99.99
69823;SHT31;57119;52.516;13.508;2023-04-15T10:58:23;11.70;99.99
69823;SHT31;57119;52.516;13.508;2023-04-15T11:00:50;11.63;99.81
69823;SHT31;57119;52.516;13.508;2023-04-15T11:03:39;11.38;99.99
69823;SHT31;57119;52.516;13.508;2023-04-15T11:06:07;11.31;99.99
69823;SHT31;57119;52.516;13.508;2023-04-15T11:08:52;11.23;99.99
69823;SHT31;57119;52.516;13.508;2023-04-15T11:11:18;11.23;99.99
69823;SHT31;57119;52.516;13.508;2023-04-15T11:13:47;11.23;99.99
69823;SHT31;57119;52.516;13.508;2023-04-15T11:16:13;11.25;99.99
69823;SHT31;57119;52.516;13.508;2023-04-15T11:18:39;11.21;99.99
69823;SHT31;57119;52.516;13.508;2023-04-15T11:21:05;11.25;99.99
69823;SHT31;57119;52.516;13.508;2023-04-15T11:23:34;11.29;99.99
69823;SHT31;57119;52.516;13.508;2023-04-15T11:26:02;11.16;99.99
69823;SHT31;57119;52.516;13.508;2023-04-15T11:28:30;11.28;99.99
69823;SHT31;57119;52.516;13.508;2023-04-15T11:30:57;11.08;99.99
69823;SHT31;57119;52.516;13.508;2023-04-15T11:33:23;11.18;99.99
69823;SHT31;57119;52.516;13.508;2023-04-15T11:35:50;11.16;99.99
69823;SHT31;57119;52.516;13.508;2023-04-15T11:38:17;11.19;99.99
69823;SHT31;57119;52.516;13.508;2023-04-15T11:40:43;11.21;99.99
69823;SHT31;57119;52.516;13.508;2023-04-15T11:43:10;11.31;99.99
69823;SHT31;57119;52.516;13.508;2023-04-15T11:45:37;11.21;99.99
69823;SHT31;57119;52.516;13.508;2023-04-15T11:48:10;11.18;99.99
69823;SHT31;57119;52.516;13.508;2023-04-15T11:50:36;11.14;99.99
69823;SHT31;57119;52.516;13.508;2023-04-15T11:53:04;11.07;99.99
69823;SHT31;57119;52.516;13.508;2023-04-15T11:55:30;11.11;99.99
69823;SHT31;57119;52.516;13.508;2023-04-15T11:58:13;11.15;99.99
69823;SHT31;57119;52.516;13.508;2023-04-15T12:00:40;11.25;99.99
69823;SHT31;57119;52.516;13.508;2023-04-15T12:03:19;11.33;99.99
69823;SHT31;57119;52.516;13.508;2023-04-15T12:11:27;11.31;99.99
69823;SHT31;57119;52.516;13.508;2023-04-15T12:14:19;11.26;99.99
69823;SHT31;57119;52.516;13.508;2023-04-15T12:16:44;11.49;99.99
69823;SHT31;57119;52.516;13.508;2023-04-15T12:19:13;11.49;99.99
69823;SHT31;57119;52.516;13.508;2023-04-15T12:21:43;11.65;99.99
69823;SHT31;57119;52.516;13.508;2023-04-15T12:24:10;11.58;99.99
69823;SHT31;57119;52.516;13.508;2023-04-15T12:26:44;11.63;99.99
69823;SHT31;57119;52.516;13.508;2023-04-15T12:29:12;11.84;99.99
69823;SHT31;57119;52.516;13.508;2023-04-15T12:34:31;12.07;99.99
69823;SHT31;57119;52.516;13.508;2023-04-15T12:36:57;12.01;99.99
69823;SHT31;57119;52.516;13.508;2023-04-15T12:39:29;12.13;99.99
69823;SHT31;57119;52.516;13.508;2023-04-15T12:41:55;12.14;99.99
69823;SHT31;57119;52.516;13.508;2023-04-15T12:44:23;12.29;99.99
69823;SHT31;57119;52.516;13.508;2023-04-15T12:46:52;12.17;99.99
69823;SHT31;57119;52.516;13.508;2023-04-15T12:49:19;12.24;99.99
69823;SHT31;57119;52.516;13.508;2023-04-15T12:51:47;12.16;99.99
69823;SHT31;57119;52.516;13.508;2023-04-15T12:54:13;12.01;99.99
69823;SHT31;57119;52.516;13.508;2023-04-15T12:56:38;12.08;99.99
69823;SHT31;57119;52.516;13.508;2023-04-15T12:59:04;11.98;99.99
69823;SHT31;57119;52.516;13.508;2023-04-15T13:01:29;12.02;99.99
69823;SHT31;57119;52.516;13.508;2023-04-15T13:03:54;11.91;99.99
69823;SHT31;57119;52.516;13.508;2023-04-15T13:06:21;12.21;99.99
69823;SHT31;57119;52.516;13.508;2023-04-15T13:08:48;12.02;99.99
69823;SHT31;57119;52.516;13.508;2023-04-15T13:11:13;12.14;99.99
69823;SHT31;57119;52.516;13.508;2023-04-15T13:13:38;12.00;99.99
69823;SHT31;57119;52.516;13.508;2023-04-15T13:16:04;11.93;99.99
69823;SHT31;57119;52.516;13.508;2023-04-15T13:18:30;11.95;99.99
69823;SHT31;57119;52.516;13.508;2023-04-15T13:20:55;11.86;99.99
69823;SHT31;57119;52.516;13.508;2023-04-15T13:23:21;12.10;99.99
69823;SHT31;57119;52.516;13.508;2023-04-15T13:25:46;12.42;99.53
69823;SHT31;57119;52.516;13.508;2023-04-15T13:28:12;12.50;99.66
69823;SHT31;57119;52.516;13.508;2023-04-15T13:30:38;12.55;98.31
69823;SHT31;57119;52.516;13.508;2023-04-15T13:33:04;12.53;98.95
69823;SHT31;57119;52.516;13.508;2023-04-15T13:35:31;12.27;99.13
69823;SHT31;57119;52.516;13.508;2023-04-15T13:37:56;12.21;99.69
69823;SHT31;57119;52.516;13.508;2023-04-15T13:40:22;12.32;99.23
69823;SHT31;57119;52.516;13.508;2023-04-15T13:42:47;12.27;99.68
69823;SHT31;57119;52.516;13.508;2023-04-15T13:45:13;12.11;99.19
69823;SHT31;57119;52.516;13.508;2023-04-15T13:47:39;12.14;99.71
69823;SHT31;57119;52.516;13.508;2023-04-15T13:50:05;11.98;99.88
69823;SHT31;57119;52.516;13.508;2023-04-15T13:52:31;11.90;99.99
69823;SHT31;57119;52.516;13.508;2023-04-15T13:54:56;12.02;99.99
69823;SHT31;57119;52.516;13.508;2023-04-15T13:57:22;11.98;99.99
69823;SHT31;57119;52.516;13.508;2023-04-15T13:59:47;11.83;99.92
69823;SHT31;57119;52.516;13.508;2023-04-15T14:02:12;11.79;99.99
69823;SHT31;57119;52.516;13.508;2023-04-15T14:04:38;11.70;99.99
69823;SHT31;57119;52.516;13.508;2023-04-15T14:07:03;11.65;99.99
69823;SHT31;57119;52.516;13.508;2023-04-15T14:09:29;11.73;99.99
69823;SHT31;57119;52.516;13.508;2023-04-15T14:11:55;11.60;99.99
69823;SHT31;57119;52.516;13.508;2023-04-15T14:14:20;11.52;99.99
69823;SHT31;57119;52.516;13.508;2023-04-15T14:16:46;11.47;99.99
69823;SHT31;57119;52.516;13.508;2023-04-15T14:19:12;11.40;99.99
69823;SHT31;57119;52.516;13.508;2023-04-15T14:21:37;11.46;99.99
69823;SHT31;57119;52.516;13.508;2023-04-15T14:24:03;11.47;99.99
69823;SHT31;57119;52.516;13.508;2023-04-15T14:26:28;11.44;99.99
69823;SHT31;57119;52.516;13.508;2023-04-15T14:28:53;11.50;99.99
69823;SHT31;57119;52.516;13.508;2023-04-15T14:31:19;11.46;99.99
69823;SHT31;57119;52.516;13.508;2023-04-15T14:33:44;11.56;99.99
69823;SHT31;57119;52.516;13.508;2023-04-15T14:36:10;11.43;99.99
69823;SHT31;57119;52.516;13.508;2023-04-15T14:38:36;11.44;99.99
69823;SHT31;57119;52.516;13.508;2023-04-15T14:41:06;11.50;99.99
69823;SHT31;57119;52.516;13.508;2023-04-15T14:43:32;11.39;99.99
69823;SHT31;57119;52.516;13.508;2023-04-15T14:45:57;11.43;99.99
69823;SHT31;57119;52.516;13.508;2023-04-15T14:48:23;11.35;99.99
69823;SHT31;57119;52.516;13.508;2023-04-15T14:50:48;11.43;99.99
69823;SHT31;57119;52.516;13.508;2023-04-15T14:53:14;11.23;99.99
69823;SHT31;57119;52.516;13.508;2023-04-15T14:55:39;11.28;99.99
69823;SHT31;57119;52.516;13.508;2023-04-15T14:58:05;11.15;99.99
69823;SHT31;57119;52.516;13.508;2023-04-15T15:00:32;11.10;99.99
69823;SHT31;57119;52.516;13.508;2023-04-15T15:02:58;11.14;99.99
69823;SHT31;57119;52.516;13.508;2023-04-15T15:05:23;11.12;99.99
69823;SHT31;57119;52.516;13.508;2023-04-15T15:07:48;11.14;99.99
69823;SHT31;57119;52.516;13.508;2023-04-15T15:10:14;11.15;99.99
69823;SHT31;57119;52.516;13.508;2023-04-15T15:12:39;11.21;99.99
69823;SHT31;57119;52.516;13.508;2023-04-15T15:15:05;11.15;99.99
69823;SHT31;57119;52.516;13.508;2023-04-15T15:17:30;11.05;99.99
69823;SHT31;57119;52.516;13.508;2023-04-15T15:19:56;11.10;99.99
69823;SHT31;57119;52.516;13.508;2023-04-15T15:22:21;11.12;99.99
69823;SHT31;57119;52.516;13.508;2023-04-15T15:24:47;11.11;99.99
69823;SHT31;57119;52.516;13.508;2023-04-15T15:27:12;11.11;99.99
69823;SHT31;57119;52.516;13.508;2023-04-15T15:29:38;11.19;99.99
69823;SHT31;57119;52.516;13.508;2023-04-15T15:32:03;11.25;99.99
69823;SHT31;57119;52.516;13.508;2023-04-15T15:34:29;11.26;99.99
69823;SHT31;57119;52.516;13.508;2023-04-15T15:36:54;11.21;99.99